Nashville, Kansas
Current Conditions -  °F | °C
As of 8:15 PM on Saturday 25 Oct 2014 (Local Time) from KPTT Reporting Station
Clear Clear  
Wind Chill: 73°   Ceiling: Unl
Heat Index: 73°   Visibility: 10mi
Dew Point: 54°   Wind: 10mph
Humidity: 50%   Direction: 160°SSE
Pressure: 29.99"   Gusts: NA
Location:  37.44°N, 98.42°W
Report Text: KPTT 260115Z AUTO 16009KT 10SM CLR 23/12 A2999 RMK AO2
Loading
Personal Weather Stations






























Interactive Weather Map
Tropical Storm Tracking
New forecast layout! Learn more

10-Day Weather Forecast

Advertisements
Track Severe Weather on mobile